createdAt,value
2022-07-28T00:02:28.981Z,1.00
2022-07-28T00:05:30.829Z,1.20
2022-07-28T00:08:32.632Z,1.50
2022-07-28T00:11:34.352Z,1.13
2022-07-28T00:14:51.762Z,1.08
2022-07-28T00:17:53.519Z,1.00
2022-07-28T00:20:55.077Z,1.40
2022-07-28T00:23:56.998Z,1.30
2022-07-28T00:26:58.710Z,1.10
2022-07-28T00:30:00.237Z,1.38
2022-07-28T00:33:01.787Z,1.10
2022-07-28T00:36:10.404Z,1.23
2022-07-28T00:39:13.519Z,1.73
2022-07-28T00:42:19.357Z,1.10
2022-07-28T00:45:20.910Z,1.73
2022-07-28T00:48:22.486Z,1.40
2022-07-28T00:51:26.526Z,1.33
2022-07-28T00:54:28.161Z,1.00
2022-07-28T00:57:29.722Z,1.08
2022-07-28T01:00:31.414Z,1.20
2022-07-28T01:03:38.683Z,1.17
2022-07-28T01:06:49.566Z,1.10
2022-07-28T01:10:08.451Z,1.00
2022-07-28T01:13:16.582Z,1.00
2022-07-28T01:16:18.324Z,1.00
2022-07-28T01:19:40.743Z,1.17
2022-07-28T01:23:08.538Z,1.20
2022-07-28T01:26:15.870Z,1.35
2022-07-28T01:29:45.271Z,0.95
2022-07-28T01:32:55.503Z,1.10
2022-07-28T01:36:03.521Z,1.02
2022-07-28T01:39:05.237Z,1.20
2022-07-28T01:42:09.174Z,0.85
2022-07-28T01:45:12.298Z,1.05
2022-07-28T01:48:17.157Z,1.17
2022-07-28T01:51:20.722Z,1.10
2022-07-28T01:54:24.785Z,1.02
2022-07-28T01:57:29.810Z,1.30
2022-07-28T02:00:32.783Z,0.98
2022-07-28T02:03:35.374Z,1.10
2022-07-28T02:06:38.939Z,1.00
2022-07-28T02:09:43.152Z,0.90
2022-07-28T02:12:48.111Z,1.00
2022-07-28T02:15:49.829Z,0.80
2022-07-28T02:18:53.769Z,0.93
2022-07-28T02:21:57.567Z,1.00
2022-07-28T02:24:59.431Z,1.50
2022-07-28T02:28:06.504Z,1.00
2022-07-28T02:31:18.598Z,1.20
2022-07-28T02:34:27.787Z,0.90
2022-07-28T02:37:36.071Z,0.90
2022-07-28T02:40:39.695Z,1.00
2022-07-28T02:43:50.488Z,1.10
2022-07-28T02:46:54.935Z,1.15
2022-07-28T02:49:58.525Z,1.00
2022-07-28T02:53:15.044Z,1.10
2022-07-28T02:56:18.213Z,0.80
2022-07-28T02:59:20.858Z,1.00
2022-07-28T03:02:23.591Z,0.90
2022-07-28T03:05:25.559Z,1.00
2022-07-28T03:08:27.172Z,0.95
2022-07-28T03:11:28.705Z,1.00
2022-07-28T03:14:30.237Z,0.88
2022-07-28T03:17:31.828Z,1.02
2022-07-28T03:20:33.898Z,1.10
2022-07-28T03:23:42.111Z,1.42
2022-07-28T03:26:50.634Z,1.08
2022-07-28T03:30:03.595Z,0.90
2022-07-28T03:33:05.621Z,1.13
2022-07-28T03:36:12.130Z,1.35
2022-07-28T03:39:16.680Z,1.15
2022-07-28T03:42:20.441Z,1.00
2022-07-28T03:45:22.484Z,1.38
2022-07-28T03:48:31.779Z,1.30
2022-07-28T03:51:33.319Z,1.05
2022-07-28T03:54:34.852Z,1.25
2022-07-28T03:57:36.425Z,0.90
2022-07-28T04:00:38.123Z,1.10
2022-07-28T04:03:44.016Z,1.08
2022-07-28T04:06:45.942Z,1.30
2022-07-28T04:09:47.509Z,1.20
2022-07-28T04:12:52.099Z,1.10
2022-07-28T04:15:53.920Z,1.20
2022-07-28T04:18:55.476Z,0.90
2022-07-28T04:21:57.020Z,1.20
2022-07-28T04:24:58.577Z,1.10
2022-07-28T04:28:02.387Z,0.98
2022-07-28T04:31:07.064Z,1.40
2022-07-28T04:34:08.645Z,1.13
2022-07-28T04:37:10.398Z,1.25
2022-07-28T04:40:13.149Z,1.30
2022-07-28T04:43:15.150Z,1.45
2022-07-28T04:46:16.785Z,1.40
2022-07-28T04:49:18.417Z,1.25
2022-07-28T04:52:20.736Z,1.40
2022-07-28T04:55:22.286Z,1.10
2022-07-28T04:58:24.605Z,1.35
2022-07-28T05:01:26.189Z,1.55
2022-07-28T05:04:27.901Z,1.38
2022-07-28T05:07:29.563Z,1.38
2022-07-28T05:10:31.150Z,1.63
2022-07-28T05:13:34.447Z,1.52
2022-07-28T05:16:36.194Z,1.27
2022-07-28T05:19:37.764Z,1.00
2022-07-28T05:22:44.505Z,1.55
2022-07-28T05:25:46.194Z,1.10
2022-07-28T05:28:47.873Z,1.17
2022-07-28T05:31:49.569Z,1.20
2022-07-28T05:34:51.119Z,1.23
2022-07-28T05:37:52.688Z,1.17
2022-07-28T05:40:54.264Z,1.30
2022-07-28T05:43:55.933Z,0.90
2022-07-28T05:46:57.518Z,1.08
2022-07-28T05:50:00.959Z,1.10
2022-07-28T05:53:02.604Z,1.20
2022-07-28T05:56:04.378Z,0.90
2022-07-28T05:59:09.968Z,1.10
2022-07-28T06:02:11.541Z,1.30
2022-07-28T06:05:13.751Z,1.10
2022-07-28T06:08:15.345Z,1.00
2022-07-28T06:11:21.755Z,0.95
2022-07-28T06:14:25.676Z,1.17
2022-07-28T06:17:27.326Z,1.00
2022-07-28T06:20:29.001Z,0.88
2022-07-28T06:23:31.531Z,1.00
2022-07-28T06:26:33.126Z,1.02
2022-07-28T06:29:34.704Z,0.88
2022-07-28T06:32:36.243Z,1.00
2022-07-28T06:35:45.274Z,1.17
2022-07-28T06:38:51.521Z,1.35
2022-07-28T06:41:53.282Z,1.95
2022-07-28T06:44:59.541Z,1.80
2022-07-28T06:48:01.376Z,1.48
2022-07-28T06:51:03.225Z,1.30
2022-07-28T06:54:10.748Z,1.38
2022-07-28T06:57:13.758Z,1.63
2022-07-28T07:00:16.080Z,1.48
2022-07-28T07:03:17.725Z,1.10
2022-07-28T07:06:19.246Z,1.08
2022-07-28T07:09:20.843Z,1.58
2022-07-28T07:12:22.479Z,1.17
2022-07-28T07:15:24.081Z,1.20
2022-07-28T07:18:25.892Z,1.42
2022-07-28T07:21:27.453Z,1.23
2022-07-28T07:24:28.995Z,1.10
2022-07-28T07:27:30.522Z,1.00
2022-07-28T07:30:32.247Z,1.05
2022-07-28T07:33:33.827Z,0.88
2022-07-28T07:36:35.355Z,1.45
2022-07-28T07:39:36.878Z,1.10
2022-07-28T07:42:38.393Z,1.40
2022-07-28T07:45:41.319Z,1.00
2022-07-28T07:48:43.117Z,0.82
2022-07-28T07:51:45.856Z,0.85
2022-07-28T07:54:47.583Z,1.20
2022-07-28T07:57:49.150Z,1.10
2022-07-28T08:00:50.766Z,1.00
2022-07-28T08:03:53.792Z,1.13
2022-07-28T08:06:56.226Z,1.30
2022-07-28T08:09:57.986Z,1.27
2022-07-28T08:12:59.551Z,1.25
2022-07-28T08:16:01.280Z,1.23
2022-07-28T08:19:03.589Z,1.13
2022-07-28T08:22:07.664Z,1.20
2022-07-28T08:25:09.253Z,1.38
2022-07-28T08:28:10.872Z,1.30
2022-07-28T08:31:13.879Z,1.13
2022-07-28T08:34:29.866Z,1.05
2022-07-28T08:37:35.310Z,1.45
2022-07-28T08:40:38.546Z,1.30
2022-07-28T08:43:42.546Z,1.38
2022-07-28T08:46:47.401Z,1.58
2022-07-28T08:49:51.308Z,1.30
2022-07-28T08:52:53.979Z,1.30
2022-07-28T08:55:58.392Z,1.15
2022-07-28T08:59:01.809Z,1.38
2022-07-28T09:02:03.438Z,1.75
2022-07-28T09:05:05.610Z,1.42
2022-07-28T09:08:07.406Z,1.30
2022-07-28T09:11:09.008Z,1.08
2022-07-28T09:14:10.654Z,1.40
2022-07-28T09:17:12.737Z,1.17
2022-07-28T09:20:14.769Z,1.40
2022-07-28T09:23:42.492Z,1.40
2022-07-28T09:26:37.876Z,1.67
2022-07-28T09:29:47.299Z,1.45
2022-07-28T09:32:48.903Z,1.52
2022-07-28T09:35:56.417Z,1.50
2022-07-28T09:38:59.072Z,1.40
2022-07-28T09:42:01.076Z,1.33
2022-07-28T09:45:22.364Z,1.40
2022-07-28T09:48:24.994Z,1.30
2022-07-28T09:51:31.337Z,1.67
2022-07-28T09:54:36.148Z,1.55
2022-07-28T09:57:43.257Z,1.38
2022-07-28T10:00:47.588Z,1.70
2022-07-28T10:03:52.577Z,1.55
2022-07-28T10:07:11.106Z,1.60
2022-07-28T10:10:12.646Z,1.73
2022-07-28T10:13:14.240Z,1.40
2022-07-28T10:16:16.124Z,1.10
2022-07-28T10:19:17.737Z,1.30
2022-07-28T10:22:19.925Z,1.42
2022-07-28T10:25:22.475Z,1.45
2022-07-28T10:28:25.137Z,1.35
2022-07-28T10:31:34.939Z,1.45
2022-07-28T10:34:46.028Z,1.63
2022-07-28T10:38:00.494Z,1.65
2022-07-28T10:41:07.691Z,1.80
2022-07-28T10:44:14.993Z,1.50
2022-07-28T10:47:18.181Z,1.27
2022-07-28T10:50:22.026Z,1.73
2022-07-28T10:53:54.823Z,1.55
2022-07-28T10:56:59.020Z,1.40
2022-07-28T11:00:13.122Z,1.60
2022-07-28T11:03:36.844Z,1.55
2022-07-28T11:06:45.912Z,1.73
2022-07-28T11:09:48.016Z,1.75
2022-07-28T11:12:52.427Z,2.30
2022-07-28T11:15:55.774Z,1.45
2022-07-28T11:19:36.553Z,1.35
2022-07-28T11:22:31.996Z,1.77
2022-07-28T11:25:34.257Z,1.55
2022-07-28T11:29:08.244Z,1.25
2022-07-28T11:32:09.862Z,2.00
2022-07-28T11:35:11.486Z,1.38
2022-07-28T11:38:14.189Z,1.80
2022-07-28T11:41:32.124Z,1.38
2022-07-28T11:44:35.907Z,1.50
2022-07-28T11:47:37.547Z,1.40
2022-07-28T11:50:39.169Z,1.48
2022-07-28T11:53:40.694Z,1.80
2022-07-28T11:56:42.343Z,2.10
2022-07-28T11:59:49.797Z,1.63
2022-07-28T12:02:51.533Z,1.40
2022-07-28T12:05:58.915Z,1.60
2022-07-28T12:09:03.301Z,1.52
2022-07-28T12:12:07.357Z,1.20
2022-07-28T12:15:14.547Z,1.45
2022-07-28T12:18:16.088Z,1.40
2022-07-28T12:21:46.280Z,1.60
2022-07-28T12:24:57.511Z,1.77
2022-07-28T12:28:13.483Z,1.58
2022-07-28T12:31:15.822Z,1.50
2022-07-28T12:34:18.972Z,1.42
2022-07-28T12:37:22.170Z,1.73
2022-07-28T12:40:27.467Z,1.38
2022-07-28T12:43:30.885Z,1.33
2022-07-28T12:46:33.131Z,1.60
2022-07-28T12:49:36.149Z,1.30
2022-07-28T12:52:37.915Z,1.70
2022-07-28T12:55:42.952Z,1.45
2022-07-28T12:58:44.726Z,1.75
2022-07-28T13:01:57.402Z,1.50
2022-07-28T13:05:02.939Z,1.40
2022-07-28T13:08:06.042Z,1.52
2022-07-28T13:11:17.315Z,1.60
2022-07-28T13:14:44.316Z,1.40
2022-07-28T13:17:51.006Z,1.60
2022-07-28T13:20:53.842Z,1.50
2022-07-28T13:23:56.349Z,1.52
2022-07-28T13:26:59.129Z,2.15
2022-07-28T13:30:01.256Z,1.50
2022-07-28T13:33:02.826Z,1.92
2022-07-28T13:36:05.768Z,1.83
2022-07-28T13:39:10.616Z,1.60
2022-07-28T13:42:12.210Z,1.55
2022-07-28T13:45:17.203Z,1.45
2022-07-28T13:48:22.937Z,1.63
2022-07-28T13:51:26.510Z,1.77
2022-07-28T13:54:28.863Z,2.33
2022-07-28T13:57:30.422Z,1.67
2022-07-28T14:00:32.520Z,1.50
2022-07-28T14:03:50.869Z,1.70
2022-07-28T14:06:55.675Z,1.65
2022-07-28T14:09:57.277Z,1.92
2022-07-28T14:13:01.699Z,2.05
2022-07-28T14:16:07.750Z,1.60
2022-07-28T14:19:13.829Z,1.40
2022-07-28T14:22:17.289Z,1.45
2022-07-28T14:25:20.535Z,1.80
2022-07-28T14:28:23.446Z,1.80
2022-07-28T14:31:25.033Z,1.70
2022-07-28T14:34:26.669Z,1.50
2022-07-28T14:37:28.231Z,1.80
2022-07-28T14:40:30.389Z,1.75
2022-07-28T14:43:31.967Z,2.13
2022-07-28T14:46:33.574Z,1.80
2022-07-28T14:49:35.750Z,1.67
2022-07-28T14:52:37.412Z,1.90
2022-07-28T14:55:38.942Z,1.52
2022-07-28T14:58:40.603Z,1.48
2022-07-28T15:01:42.282Z,2.20
2022-07-28T15:04:43.967Z,1.42
2022-07-28T15:07:49.052Z,1.60
2022-07-28T15:10:50.747Z,1.35
2022-07-28T15:13:52.372Z,2.00
2022-07-28T15:16:54.116Z,2.10
2022-07-28T15:19:56.815Z,1.80
2022-07-28T15:22:58.378Z,1.70
2022-07-28T15:25:59.999Z,1.67
2022-07-28T15:29:02.224Z,1.50
2022-07-28T15:32:04.833Z,1.60
2022-07-28T15:35:07.865Z,1.83
2022-07-28T15:38:09.554Z,1.58
2022-07-28T15:41:12.996Z,1.40
2022-07-28T15:44:16.397Z,1.77
2022-07-28T15:47:21.895Z,2.00
2022-07-28T15:50:23.452Z,1.92
2022-07-28T15:53:25.156Z,1.58
2022-07-28T15:56:28.422Z,1.80
2022-07-28T15:59:49.527Z,1.70
2022-07-28T16:02:53.004Z,2.10
2022-07-28T16:05:54.649Z,1.73
2022-07-28T16:08:56.327Z,1.92
2022-07-28T16:11:57.853Z,2.00
2022-07-28T16:14:59.741Z,1.88
2022-07-28T16:18:01.339Z,1.63
2022-07-28T16:21:03.482Z,1.77
2022-07-28T16:24:06.809Z,1.55
2022-07-28T16:27:08.576Z,2.20
2022-07-28T16:30:13.387Z,1.88
2022-07-28T16:33:15.095Z,1.63
2022-07-28T16:36:16.765Z,1.50
2022-07-28T16:39:18.392Z,1.55
2022-07-28T16:42:20.800Z,1.70
2022-07-28T16:45:22.404Z,2.45
2022-07-28T16:48:24.046Z,1.95
2022-07-28T16:51:25.643Z,1.80
2022-07-28T16:54:27.225Z,3.28
2022-07-28T16:57:28.962Z,3.53
2022-07-28T17:00:30.549Z,1.70
2022-07-28T17:03:32.168Z,3.28
2022-07-28T17:06:33.783Z,2.42
2022-07-28T17:09:35.365Z,1.77
2022-07-28T17:12:38.261Z,1.40
2022-07-28T17:15:39.901Z,1.60
2022-07-28T17:18:41.581Z,1.88
2022-07-28T17:21:43.183Z,1.70
2022-07-28T17:24:44.911Z,1.70
2022-07-28T17:27:48.216Z,1.80
2022-07-28T17:30:49.979Z,1.60
2022-07-28T17:33:51.627Z,1.50
2022-07-28T17:36:54.690Z,1.63
2022-07-28T17:39:56.611Z,1.73
2022-07-28T17:42:58.339Z,1.80
2022-07-28T17:46:00.979Z,1.45
2022-07-28T17:49:03.328Z,1.50
2022-07-28T17:52:07.128Z,1.52
2022-07-28T17:55:28.267Z,1.40
2022-07-28T17:58:32.713Z,1.90
2022-07-28T18:01:34.829Z,1.80
2022-07-28T18:04:36.380Z,1.60
2022-07-28T18:07:49.054Z,1.38
2022-07-28T18:10:53.990Z,1.92
2022-07-28T18:14:05.047Z,1.83
2022-07-28T18:17:07.003Z,1.70
2022-07-28T18:20:09.023Z,1.73
2022-07-28T18:23:11.454Z,1.58
2022-07-28T18:26:13.115Z,1.65
2022-07-28T18:29:14.809Z,1.95
2022-07-28T18:32:17.340Z,1.90
2022-07-28T18:35:19.837Z,1.88
2022-07-28T18:38:21.880Z,1.80
